createdAt,value
2022-12-22T00:02:09.079Z,53.80
2022-12-22T00:04:55.462Z,55.33
2022-12-22T00:07:42.046Z,53.97
2022-12-22T00:10:28.759Z,50.97
2022-12-22T00:13:14.872Z,51.63
2022-12-22T00:16:01.337Z,53.80
2022-12-22T00:18:49.016Z,51.27
2022-12-22T00:21:35.501Z,52.33
2022-12-22T00:24:22.022Z,51.27
2022-12-22T00:27:08.242Z,48.50
2022-12-22T00:29:57.174Z,52.57
2022-12-22T00:32:53.456Z,50.87
2022-12-22T00:35:43.801Z,52.23
2022-12-22T00:38:35.615Z,49.50
2022-12-22T00:41:22.069Z,50.87
2022-12-22T00:44:08.548Z,50.03
2022-12-22T00:46:58.293Z,51.33
2022-12-22T00:49:47.112Z,51.87
2022-12-22T00:52:35.918Z,51.73
2022-12-22T00:55:30.797Z,46.57
2022-12-22T00:58:17.811Z,50.10
2022-12-22T01:01:04.457Z,52.33
2022-12-22T01:03:51.231Z,53.47
2022-12-22T01:06:38.235Z,56.43
2022-12-22T01:09:28.788Z,54.17
2022-12-22T01:12:15.165Z,55.87
2022-12-22T01:15:01.340Z,50.27
2022-12-22T01:17:47.566Z,52.97
2022-12-22T01:20:33.776Z,55.17
2022-12-22T01:23:19.951Z,53.77
2022-12-22T01:26:07.884Z,57.00
2022-12-22T01:28:54.119Z,54.70
2022-12-22T01:31:46.228Z,53.30
2022-12-22T01:34:33.045Z,59.93
2022-12-22T01:37:19.166Z,60.80
2022-12-22T01:40:05.612Z,59.17
2022-12-22T01:42:54.291Z,59.33
2022-12-22T01:45:43.505Z,59.53
2022-12-22T01:48:31.504Z,55.27
2022-12-22T01:51:21.388Z,60.80
2022-12-22T01:54:07.679Z,59.23
2022-12-22T01:56:53.972Z,64.67
2022-12-22T01:59:42.052Z,65.03
2022-12-22T02:02:29.948Z,62.50
2022-12-22T02:05:19.349Z,65.33
2022-12-22T02:08:20.462Z,64.87
2022-12-22T02:11:21.302Z,64.00
2022-12-22T02:14:18.329Z,67.90
2022-12-22T02:17:13.972Z,60.67
2022-12-22T02:20:28.627Z,65.93
2022-12-22T02:23:25.552Z,65.03
2022-12-22T02:26:18.470Z,63.50
2022-12-22T02:29:08.052Z,62.13
2022-12-22T02:31:56.422Z,60.83
2022-12-22T02:34:42.690Z,59.67
2022-12-22T02:37:38.436Z,67.73
2022-12-22T02:40:40.833Z,75.93
2022-12-22T02:43:40.166Z,62.20
2022-12-22T02:46:34.794Z,66.40
2022-12-22T02:49:25.259Z,63.70
2022-12-22T02:52:20.213Z,60.87
2022-12-22T02:55:06.733Z,61.30
2022-12-22T02:57:53.345Z,69.00
2022-12-22T03:00:40.116Z,60.23
2022-12-22T03:03:28.575Z,61.47
2022-12-22T03:06:14.966Z,59.23
2022-12-22T03:09:01.294Z,57.53
2022-12-22T03:11:47.681Z,58.87
2022-12-22T03:14:33.832Z,56.47
2022-12-22T03:17:19.990Z,50.33
2022-12-22T03:20:08.033Z,59.47
2022-12-22T03:22:54.125Z,58.17
2022-12-22T03:25:40.498Z,52.20
2022-12-22T03:28:11.597Z,51.43
2022-12-22T03:30:41.027Z,51.77
2022-12-22T03:33:10.026Z,49.00
2022-12-22T03:35:40.328Z,52.87
2022-12-22T03:38:09.291Z,48.40
2022-12-22T03:40:38.293Z,48.90
2022-12-22T03:43:24.500Z,47.07
2022-12-22T03:46:13.788Z,50.97
2022-12-22T03:48:43.011Z,47.03
2022-12-22T03:51:13.480Z,45.03
2022-12-22T03:53:42.494Z,48.47
2022-12-22T03:56:11.636Z,43.53
2022-12-22T03:58:40.574Z,45.80
2022-12-22T04:01:10.018Z,45.30
2022-12-22T04:03:39.040Z,49.00
2022-12-22T04:06:08.079Z,42.90
2022-12-22T04:08:38.476Z,45.60
2022-12-22T04:11:24.848Z,44.00
2022-12-22T04:13:53.766Z,42.97
2022-12-22T04:16:22.790Z,45.63
2022-12-22T04:18:52.705Z,40.77
2022-12-22T04:21:21.670Z,42.37
2022-12-22T04:23:52.593Z,44.37
2022-12-22T04:26:23.589Z,42.87
2022-12-22T04:28:53.255Z,40.50
2022-12-22T04:31:23.669Z,40.60
2022-12-22T04:33:52.760Z,43.40
2022-12-22T04:36:21.747Z,43.17
2022-12-22T04:38:52.147Z,42.37
2022-12-22T04:41:21.146Z,41.23
2022-12-22T04:43:50.085Z,42.40
2022-12-22T04:46:19.052Z,39.63
2022-12-22T04:48:48.123Z,39.83
2022-12-22T04:51:17.043Z,43.50
2022-12-22T04:53:45.949Z,39.70
2022-12-22T04:56:16.391Z,39.97
2022-12-22T04:58:45.299Z,41.50
2022-12-22T05:01:15.779Z,41.83
2022-12-22T05:03:45.391Z,42.40
2022-12-22T05:06:14.623Z,43.10
2022-12-22T05:08:43.808Z,40.30
2022-12-22T05:11:13.074Z,42.40
2022-12-22T05:13:43.436Z,38.73
2022-12-22T05:16:15.073Z,39.97
2022-12-22T05:18:45.430Z,45.70
2022-12-22T05:21:15.853Z,42.27
2022-12-22T05:23:45.341Z,38.53
2022-12-22T05:26:15.138Z,41.23
2022-12-22T05:28:46.498Z,40.17
2022-12-22T05:31:19.063Z,37.03
2022-12-22T05:33:48.292Z,39.10
2022-12-22T05:36:17.440Z,38.80
2022-12-22T05:38:46.454Z,38.67
2022-12-22T05:41:15.584Z,37.60
2022-12-22T05:43:45.925Z,39.70
2022-12-22T05:46:14.892Z,38.20
2022-12-22T05:48:43.893Z,34.60
2022-12-22T05:51:12.944Z,36.43
2022-12-22T05:53:42.404Z,35.97
2022-12-22T05:56:11.321Z,36.33
2022-12-22T05:58:40.791Z,33.23
2022-12-22T06:01:11.275Z,33.40
2022-12-22T06:03:40.368Z,38.83
2022-12-22T06:06:09.788Z,33.87
2022-12-22T06:08:39.267Z,36.27
2022-12-22T06:11:08.295Z,34.57
2022-12-22T06:13:37.285Z,36.27
2022-12-22T06:16:06.719Z,34.60
2022-12-22T06:18:37.203Z,32.37
2022-12-22T06:21:06.338Z,33.00
2022-12-22T06:23:35.246Z,28.67
2022-12-22T06:26:04.561Z,33.70
2022-12-22T06:28:33.556Z,34.03
2022-12-22T06:31:02.657Z,34.43
2022-12-22T06:33:31.710Z,35.47
2022-12-22T06:36:06.490Z,31.30
2022-12-22T06:38:35.485Z,33.70
2022-12-22T06:41:04.420Z,32.53
2022-12-22T06:43:32.282Z,31.77
2022-12-22T06:46:01.538Z,33.00
2022-12-22T06:48:30.624Z,33.93
2022-12-22T06:51:01.595Z,32.03
2022-12-22T06:53:31.084Z,32.33
2022-12-22T06:56:01.200Z,31.30
2022-12-22T06:58:30.669Z,29.37
2022-12-22T07:00:59.705Z,31.50
2022-12-22T07:03:28.868Z,30.10
2022-12-22T07:05:57.945Z,31.03
2022-12-22T07:08:28.331Z,30.87
2022-12-22T07:11:00.012Z,28.80
2022-12-22T07:13:32.130Z,31.30
2022-12-22T07:16:02.407Z,30.20
2022-12-22T07:18:33.030Z,28.23
2022-12-22T07:21:03.693Z,27.43
2022-12-22T07:23:34.462Z,29.33
2022-12-22T07:26:04.472Z,29.80
2022-12-22T07:28:35.324Z,33.63
2022-12-22T07:31:05.112Z,30.93
2022-12-22T07:33:34.561Z,30.23
2022-12-22T07:36:09.213Z,32.93
2022-12-22T07:38:41.127Z,30.77
2022-12-22T07:41:26.133Z,31.70
2022-12-22T07:43:55.570Z,29.40
2022-12-22T07:46:25.165Z,30.17
2022-12-22T07:49:12.175Z,31.90
2022-12-22T07:51:43.147Z,29.83
2022-12-22T07:54:15.107Z,32.10
2022-12-22T07:56:45.065Z,31.40
2022-12-22T07:59:14.577Z,32.10
2022-12-22T08:01:44.040Z,30.33
2022-12-22T08:04:14.009Z,32.83
2022-12-22T08:06:43.285Z,27.63
2022-12-22T08:09:16.870Z,30.13
2022-12-22T08:11:46.091Z,29.43
2022-12-22T08:14:15.186Z,26.07
2022-12-22T08:16:44.383Z,28.20
2022-12-22T08:19:13.641Z,26.73
2022-12-22T08:21:48.361Z,26.57
2022-12-22T08:24:23.258Z,26.47
2022-12-22T08:26:56.169Z,25.87
2022-12-22T08:29:28.984Z,25.87
2022-12-22T08:31:58.178Z,28.20
2022-12-22T08:34:27.306Z,28.40
2022-12-22T08:37:01.028Z,25.93
2022-12-22T08:39:34.375Z,23.87
2022-12-22T08:42:07.124Z,25.70
2022-12-22T08:44:39.152Z,23.00
2022-12-22T08:47:14.860Z,22.83
2022-12-22T08:49:45.932Z,22.70
2022-12-22T08:52:18.759Z,23.93
2022-12-22T08:54:53.616Z,23.87
2022-12-22T08:57:22.615Z,23.80
2022-12-22T08:59:51.741Z,22.53
2022-12-22T09:02:20.864Z,23.37
2022-12-22T09:04:50.115Z,26.00
2022-12-22T09:07:19.810Z,22.80
2022-12-22T09:09:48.769Z,24.83
2022-12-22T09:12:19.652Z,21.17
2022-12-22T09:14:48.699Z,21.97
2022-12-22T09:17:17.877Z,22.40
2022-12-22T09:19:46.909Z,24.03
2022-12-22T09:22:18.274Z,22.80
2022-12-22T09:24:49.568Z,25.87
2022-12-22T09:27:20.019Z,24.17
2022-12-22T09:29:49.089Z,24.90
2022-12-22T09:32:18.162Z,23.73
2022-12-22T09:34:47.357Z,27.33
2022-12-22T09:37:16.761Z,24.23
2022-12-22T09:39:46.872Z,23.83
2022-12-22T09:42:19.800Z,27.00
2022-12-22T09:44:52.755Z,25.63
2022-12-22T09:47:27.803Z,23.83
2022-12-22T09:49:58.717Z,25.67
2022-12-22T09:52:45.268Z,24.73
2022-12-22T09:55:21.585Z,27.10
2022-12-22T09:57:51.313Z,27.93
2022-12-22T10:00:25.132Z,27.60
2022-12-22T10:03:01.944Z,27.70
2022-12-22T10:05:39.683Z,25.00
2022-12-22T10:08:13.011Z,25.40
2022-12-22T10:10:42.344Z,26.70
2022-12-22T10:13:19.111Z,28.13
2022-12-22T10:15:50.627Z,30.37
2022-12-22T10:18:24.789Z,25.07
2022-12-22T10:21:10.567Z,27.67
2022-12-22T10:23:42.632Z,30.37
2022-12-22T10:26:31.758Z,28.80
2022-12-22T10:29:04.912Z,27.03
2022-12-22T10:31:37.219Z,27.80
2022-12-22T10:34:15.263Z,28.50
2022-12-22T10:36:49.373Z,29.13
2022-12-22T10:39:24.223Z,32.20
2022-12-22T10:41:56.742Z,28.80
2022-12-22T10:44:29.649Z,29.90
2022-12-22T10:47:02.106Z,29.27
2022-12-22T10:52:15.437Z,28.73
2022-12-22T10:54:46.877Z,31.87
2022-12-22T10:57:31.663Z,28.00
2022-12-22T11:00:02.420Z,28.30
2022-12-22T11:02:38.446Z,32.13
2022-12-22T11:05:10.301Z,33.97
2022-12-22T11:07:42.273Z,32.63
2022-12-22T11:10:24.758Z,29.87
2022-12-22T11:13:03.731Z,32.67
2022-12-22T11:15:40.449Z,30.17
2022-12-22T11:18:23.085Z,33.53
2022-12-22T11:21:02.605Z,29.03
2022-12-22T11:23:37.811Z,29.77
2022-12-22T11:26:15.390Z,31.90
2022-12-22T11:29:07.026Z,32.77
2022-12-22T11:31:53.116Z,32.70
2022-12-22T11:34:36.686Z,31.07
2022-12-22T11:37:20.939Z,30.50
2022-12-22T11:39:59.578Z,32.47
2022-12-22T11:42:47.393Z,32.77
2022-12-22T11:45:43.049Z,31.83
2022-12-22T11:48:42.631Z,32.67
2022-12-22T11:51:27.131Z,30.33
2022-12-22T11:54:27.440Z,33.43
2022-12-22T11:57:04.059Z,28.60
2022-12-22T11:59:43.432Z,30.77
2022-12-22T12:02:42.158Z,29.87
2022-12-22T12:05:39.000Z,31.53
2022-12-22T12:08:21.391Z,27.93
2022-12-22T12:10:55.573Z,31.90
2022-12-22T12:13:37.692Z,30.13
2022-12-22T12:16:30.926Z,29.07
2022-12-22T12:19:29.590Z,29.83
2022-12-22T12:22:00.385Z,29.93
2022-12-22T12:24:44.253Z,33.00
2022-12-22T12:27:47.331Z,30.10
2022-12-22T12:33:15.295Z,27.47
2022-12-22T12:35:52.809Z,29.67
2022-12-22T12:41:27.878Z,28.57
2022-12-22T12:43:58.338Z,27.67
2022-12-22T12:46:56.868Z,26.50
2022-12-22T12:50:00.184Z,26.77
2022-12-22T12:53:15.417Z,27.03
2022-12-22T12:56:10.097Z,24.43
2022-12-22T12:58:55.039Z,27.23
2022-12-22T13:02:03.211Z,25.17
2022-12-22T13:05:14.644Z,24.10
2022-12-22T13:08:16.386Z,26.97
2022-12-22T13:10:49.019Z,27.57
2022-12-22T13:13:54.402Z,27.10
2022-12-22T13:16:32.978Z,24.77
2022-12-22T13:19:28.391Z,24.70
2022-12-22T13:21:58.218Z,28.03
2022-12-22T13:24:32.165Z,24.77
2022-12-22T13:27:08.628Z,25.97
2022-12-22T13:29:45.273Z,25.20
2022-12-22T13:32:27.719Z,24.23
2022-12-22T13:37:57.671Z,25.00
2022-12-22T13:40:30.946Z,24.70
2022-12-22T13:43:04.452Z,28.77
2022-12-22T13:45:38.608Z,24.93
2022-12-22T13:48:11.186Z,26.13
2022-12-22T13:50:44.514Z,25.43
2022-12-22T13:53:50.049Z,26.33
2022-12-22T13:56:14.820Z,25.97
2022-12-22T13:58:46.693Z,30.47
2022-12-22T14:01:20.395Z,26.40
2022-12-22T14:04:01.482Z,27.47
2022-12-22T14:06:33.922Z,26.10
2022-12-22T14:09:14.439Z,28.47
2022-12-22T14:11:51.090Z,25.67
2022-12-22T14:14:25.115Z,25.07
2022-12-22T14:16:58.240Z,26.63
2022-12-22T14:19:28.128Z,25.93
2022-12-22T14:22:04.995Z,27.40
2022-12-22T14:24:42.599Z,26.80
2022-12-22T14:27:20.163Z,27.13
2022-12-22T14:29:49.417Z,26.80
2022-12-22T14:32:38.993Z,27.37
2022-12-22T14:35:23.868Z,27.23
2022-12-22T14:37:55.722Z,26.13
2022-12-22T14:40:33.415Z,25.50
2022-12-22T14:43:07.068Z,27.57
2022-12-22T14:45:36.266Z,26.03
2022-12-22T14:48:10.354Z,25.23
2022-12-22T14:50:40.694Z,27.13
2022-12-22T14:53:14.666Z,26.40
2022-12-22T14:55:50.115Z,28.57
2022-12-22T14:58:23.185Z,26.43
2022-12-22T15:01:17.080Z,32.70
2022-12-22T15:04:02.542Z,27.40
2022-12-22T15:06:40.728Z,26.73
2022-12-22T15:12:20.220Z,27.57
2022-12-22T15:14:50.214Z,29.50
2022-12-22T15:17:24.067Z,26.20
2022-12-22T15:19:59.025Z,29.53
2022-12-22T15:22:28.324Z,28.50
2022-12-22T15:24:57.435Z,30.23
2022-12-22T15:27:26.567Z,28.83
2022-12-22T15:29:55.717Z,27.97
2022-12-22T15:32:27.347Z,27.47
2022-12-22T15:34:58.104Z,28.50
2022-12-22T15:37:27.096Z,26.10
2022-12-22T15:39:56.261Z,31.23
2022-12-22T15:42:25.346Z,28.43
2022-12-22T15:44:54.412Z,27.77
2022-12-22T15:47:23.825Z,29.30
2022-12-22T15:49:52.916Z,30.00
2022-12-22T15:52:23.619Z,28.40
2022-12-22T15:54:52.874Z,32.50
2022-12-22T15:57:21.957Z,29.83
2022-12-22T15:59:51.086Z,35.37
2022-12-22T16:02:20.283Z,32.43
2022-12-22T16:04:49.617Z,35.93
2022-12-22T16:07:18.592Z,34.70
2022-12-22T16:09:50.367Z,32.07
2022-12-22T16:12:20.666Z,32.03
2022-12-22T16:14:52.666Z,33.40
2022-12-22T16:17:23.432Z,34.37
2022-12-22T16:19:52.526Z,32.60
2022-12-22T16:22:27.955Z,31.73
2022-12-22T16:24:58.697Z,39.77
2022-12-22T16:27:27.800Z,36.60
2022-12-22T16:29:57.056Z,36.87
2022-12-22T16:32:28.690Z,38.00
2022-12-22T16:35:08.098Z,34.20
2022-12-22T16:37:37.312Z,36.83
2022-12-22T16:40:09.315Z,40.77
2022-12-22T16:45:29.534Z,36.77
2022-12-22T16:48:01.642Z,36.93
2022-12-22T16:50:33.648Z,35.23
2022-12-22T16:53:04.394Z,35.57
2022-12-22T16:55:36.138Z,38.70
2022-12-22T16:58:12.849Z,35.27
2022-12-22T17:00:45.392Z,39.80
2022-12-22T17:03:17.112Z,42.13
2022-12-22T17:05:49.548Z,36.93
2022-12-22T17:08:23.140Z,40.97
2022-12-22T17:10:55.415Z,36.87
2022-12-22T17:13:25.244Z,37.13
2022-12-22T17:15:54.451Z,40.40
2022-12-22T17:18:27.453Z,41.23
2022-12-22T17:20:58.616Z,37.97
2022-12-22T17:23:33.293Z,41.00
2022-12-22T17:26:07.374Z,39.10
2022-12-22T17:28:38.713Z,37.37
2022-12-22T17:31:08.300Z,39.43
2022-12-22T17:33:37.352Z,37.37
2022-12-22T17:36:06.817Z,38.77
2022-12-22T17:38:35.865Z,39.40
2022-12-22T17:41:06.735Z,36.90
2022-12-22T17:43:35.714Z,38.43
2022-12-22T17:46:04.851Z,37.63
2022-12-22T17:48:34.124Z,38.53
2022-12-22T17:51:03.183Z,37.50
2022-12-22T17:53:37.509Z,38.87
2022-12-22T17:56:21.222Z,44.23
2022-12-22T17:58:50.606Z,37.73
2022-12-22T18:01:27.908Z,40.43
2022-12-22T18:03:57.844Z,41.53
2022-12-22T18:06:30.535Z,36.83
2022-12-22T18:08:59.736Z,37.43
2022-12-22T18:11:30.268Z,36.17
2022-12-22T18:14:01.272Z,35.83
2022-12-22T18:16:30.810Z,32.47
2022-12-22T18:18:59.883Z,36.23
2022-12-22T18:21:30.379Z,33.37
2022-12-22T18:23:59.689Z,36.30
2022-12-22T18:26:31.962Z,34.53
2022-12-22T18:29:02.144Z,35.00
2022-12-22T18:31:31.555Z,36.83
2022-12-22T18:34:00.739Z,31.97
2022-12-22T18:36:32.930Z,35.50
2022-12-22T18:39:03.554Z,34.43
2022-12-22T18:41:37.254Z,34.97
2022-12-22T18:44:06.623Z,34.50
2022-12-22T18:46:35.899Z,35.23
2022-12-22T18:49:06.107Z,35.27
2022-12-22T18:51:35.692Z,34.30
2022-12-22T18:54:05.138Z,32.17
2022-12-22T18:56:36.135Z,32.20
2022-12-22T18:59:18.256Z,33.37
2022-12-22T19:01:47.598Z,33.37
2022-12-22T19:04:17.454Z,35.07
2022-12-22T19:06:46.675Z,32.40
2022-12-22T19:09:17.096Z,33.87
2022-12-22T19:11:48.499Z,33.77
2022-12-22T19:14:21.465Z,33.13
2022-12-22T19:16:50.858Z,32.77
2022-12-22T19:19:21.115Z,32.10
2022-12-22T19:21:50.700Z,35.10
2022-12-22T19:24:20.872Z,37.03
2022-12-22T19:26:51.472Z,33.00
2022-12-22T19:29:21.495Z,29.10
2022-12-22T19:31:51.540Z,34.13
2022-12-22T19:34:23.046Z,34.00
2022-12-22T19:37:05.917Z,32.63
2022-12-22T19:39:37.164Z,30.43
2022-12-22T19:42:13.573Z,29.43
2022-12-22T19:44:44.699Z,30.33
2022-12-22T19:47:19.337Z,28.37
2022-12-22T19:49:49.653Z,25.43
2022-12-22T19:52:18.994Z,26.17
2022-12-22T19:54:47.934Z,27.37
2022-12-22T19:57:22.212Z,25.93
2022-12-22T19:59:53.481Z,25.40
2022-12-22T20:02:29.092Z,26.83
2022-12-22T20:05:00.029Z,23.80
2022-12-22T20:07:33.050Z,30.20
2022-12-22T20:10:02.078Z,28.93
2022-12-22T20:12:35.218Z,28.53
2022-12-22T20:15:15.906Z,27.57
2022-12-22T20:17:45.417Z,28.67
2022-12-22T20:20:15.805Z,26.43
2022-12-22T20:22:48.036Z,25.93
2022-12-22T20:25:19.012Z,27.17
2022-12-22T20:27:55.391Z,25.77
2022-12-22T20:30:26.570Z,25.70
2022-12-22T20:32:56.783Z,26.90
2022-12-22T20:35:28.598Z,24.57
2022-12-22T20:38:14.591Z,24.77
2022-12-22T20:40:44.644Z,24.93
2022-12-22T20:43:21.201Z,25.33
2022-12-22T20:45:53.551Z,24.80
2022-12-22T20:48:31.043Z,24.67
2022-12-22T20:51:00.724Z,22.30
2022-12-22T20:53:30.750Z,24.80
2022-12-22T20:56:00.587Z,26.27
2022-12-22T20:58:35.705Z,22.57
2022-12-22T21:01:06.203Z,24.93
2022-12-22T21:03:35.580Z,26.47
2022-12-22T21:06:14.226Z,24.83
2022-12-22T21:08:43.589Z,25.17
2022-12-22T21:11:13.086Z,23.33
2022-12-22T21:13:43.986Z,23.67
2022-12-22T21:16:17.094Z,22.53
2022-12-22T21:18:47.091Z,26.90
2022-12-22T21:21:16.507Z,25.30
2022-12-22T21:23:45.509Z,22.83
2022-12-22T21:26:23.060Z,23.47
2022-12-22T21:28:54.614Z,24.57
2022-12-22T21:31:23.819Z,23.23
2022-12-22T21:33:52.960Z,24.10
2022-12-22T21:36:25.068Z,24.10
2022-12-22T21:38:56.789Z,21.33
2022-12-22T21:41:46.114Z,23.77
2022-12-22T21:44:16.635Z,23.37
2022-12-22T21:46:47.301Z,21.20
2022-12-22T21:49:20.019Z,23.57
2022-12-22T21:51:49.593Z,24.37
2022-12-22T21:54:19.552Z,22.90
2022-12-22T21:56:48.995Z,25.40
2022-12-22T21:59:19.631Z,21.37
2022-12-22T22:01:49.060Z,22.73
2022-12-22T22:04:18.216Z,21.50
2022-12-22T22:06:47.236Z,23.63
2022-12-22T22:09:16.440Z,21.33
2022-12-22T22:11:59.228Z,23.53
2022-12-22T22:14:29.932Z,21.13
2022-12-22T22:16:59.143Z,24.17
2022-12-22T22:19:28.319Z,25.57
2022-12-22T22:21:57.384Z,24.23
2022-12-22T22:24:26.493Z,23.17
2022-12-22T22:26:56.703Z,21.90
2022-12-22T22:29:25.739Z,22.00
2022-12-22T22:31:56.171Z,25.83
2022-12-22T22:34:25.203Z,26.00
2022-12-22T22:36:54.291Z,22.87
2022-12-22T22:39:24.292Z,22.90
2022-12-22T22:41:53.340Z,24.87
2022-12-22T22:44:22.853Z,26.17
2022-12-22T22:46:51.897Z,24.37
2022-12-22T22:49:28.013Z,24.33
2022-12-22T22:52:00.287Z,23.13
2022-12-22T22:54:32.928Z,24.10
2022-12-22T22:57:04.489Z,25.23
2022-12-22T22:59:33.522Z,24.27
2022-12-22T23:02:02.729Z,25.33
2022-12-22T23:04:33.450Z,26.07
2022-12-22T23:07:02.534Z,25.13
2022-12-22T23:09:31.647Z,22.17
2022-12-22T23:12:00.672Z,24.40
2022-12-22T23:14:29.750Z,22.97
2022-12-22T23:16:58.776Z,23.60
2022-12-22T23:19:28.008Z,25.53
2022-12-22T23:21:58.504Z,25.40
2022-12-22T23:24:27.708Z,22.07
2022-12-22T23:26:56.718Z,20.63
2022-12-22T23:29:25.799Z,22.97
2022-12-22T23:31:55.255Z,23.47
2022-12-22T23:34:24.238Z,24.60
2022-12-22T23:36:53.250Z,21.50
2022-12-22T23:39:23.869Z,21.23
2022-12-22T23:41:52.959Z,24.13
2022-12-22T23:44:22.032Z,20.93
2022-12-22T23:46:51.245Z,21.63
2022-12-22T23:49:20.267Z,21.33
2022-12-22T23:51:49.317Z,20.37
2022-12-22T23:54:18.324Z,22.73
2022-12-22T23:56:48.825Z,21.73
2022-12-22T23:59:17.871Z,22.87
